sensor_id;sensor_type;location;lat;lon;timestamp;P1;durP1;ratioP1;P2;durP2;ratioP2
12042;SDS011;6082;49.306;12.862;2022-11-11T00:00:48;5.43;;;3.83;;
12042;SDS011;6082;49.306;12.862;2022-11-11T00:03:14;9.93;;;4.43;;
12042;SDS011;6082;49.306;12.862;2022-11-11T00:05:40;5.90;;;4.03;;
12042;SDS011;6082;49.306;12.862;2022-11-11T00:08:06;4.57;;;3.57;;
12042;SDS011;6082;49.306;12.862;2022-11-11T00:10:32;5.20;;;4.13;;
12042;SDS011;6082;49.306;12.862;2022-11-11T00:13:01;8.03;;;4.60;;
12042;SDS011;6082;49.306;12.862;2022-11-11T00:15:28;6.87;;;4.63;;
12042;SDS011;6082;49.306;12.862;2022-11-11T00:17:54;6.67;;;4.50;;
12042;SDS011;6082;49.306;12.862;2022-11-11T00:20:38;7.73;;;4.17;;
12042;SDS011;6082;49.306;12.862;2022-11-11T00:23:24;6.67;;;4.20;;
12042;SDS011;6082;49.306;12.862;2022-11-11T00:26:11;9.50;;;4.17;;
12042;SDS011;6082;49.306;12.862;2022-11-11T00:28:38;7.60;;;4.30;;
12042;SDS011;6082;49.306;12.862;2022-11-11T00:31:08;7.43;;;4.57;;
12042;SDS011;6082;49.306;12.862;2022-11-11T00:33:39;6.77;;;4.37;;
12042;SDS011;6082;49.306;12.862;2022-11-11T00:36:05;6.23;;;3.87;;
12042;SDS011;6082;49.306;12.862;2022-11-11T00:38:32;5.90;;;3.87;;
12042;SDS011;6082;49.306;12.862;2022-11-11T00:41:10;5.93;;;3.97;;
12042;SDS011;6082;49.306;12.862;2022-11-11T00:43:36;4.53;;;3.30;;
12042;SDS011;6082;49.306;12.862;2022-11-11T00:46:03;6.87;;;4.10;;
12042;SDS011;6082;49.306;12.862;2022-11-11T00:48:48;6.87;;;3.67;;
12042;SDS011;6082;49.306;12.862;2022-11-11T00:51:32;5.17;;;3.57;;
12042;SDS011;6082;49.306;12.862;2022-11-11T00:53:57;7.63;;;4.33;;
12042;SDS011;6082;49.306;12.862;2022-11-11T00:56:29;7.37;;;4.10;;
12042;SDS011;6082;49.306;12.862;2022-11-11T00:58:55;7.93;;;3.90;;
12042;SDS011;6082;49.306;12.862;2022-11-11T01:01:21;7.20;;;4.50;;
12042;SDS011;6082;49.306;12.862;2022-11-11T01:03:47;7.43;;;4.57;;
12042;SDS011;6082;49.306;12.862;2022-11-11T01:06:13;7.83;;;4.30;;
12042;SDS011;6082;49.306;12.862;2022-11-11T01:08:39;6.27;;;4.00;;
12042;SDS011;6082;49.306;12.862;2022-11-11T01:11:15;6.77;;;3.93;;
12042;SDS011;6082;49.306;12.862;2022-11-11T01:13:43;6.37;;;4.17;;
12042;SDS011;6082;49.306;12.862;2022-11-11T01:16:14;8.20;;;5.03;;
12042;SDS011;6082;49.306;12.862;2022-11-11T01:18:41;7.00;;;3.77;;
12042;SDS011;6082;49.306;12.862;2022-11-11T01:21:10;6.37;;;3.93;;
12042;SDS011;6082;49.306;12.862;2022-11-11T01:23:41;7.37;;;4.17;;
12042;SDS011;6082;49.306;12.862;2022-11-11T01:26:21;7.70;;;4.00;;
12042;SDS011;6082;49.306;12.862;2022-11-11T01:28:52;7.70;;;4.20;;
12042;SDS011;6082;49.306;12.862;2022-11-11T01:31:19;5.77;;;4.13;;
12042;SDS011;6082;49.306;12.862;2022-11-11T01:33:46;7.60;;;4.40;;
12042;SDS011;6082;49.306;12.862;2022-11-11T01:36:14;8.53;;;4.53;;
12042;SDS011;6082;49.306;12.862;2022-11-11T01:38:41;6.63;;;4.23;;
12042;SDS011;6082;49.306;12.862;2022-11-11T01:41:09;9.90;;;4.60;;
12042;SDS011;6082;49.306;12.862;2022-11-11T01:43:55;5.87;;;3.60;;
12042;SDS011;6082;49.306;12.862;2022-11-11T01:48:58;7.93;;;4.10;;
12042;SDS011;6082;49.306;12.862;2022-11-11T01:59:52;5.80;;;3.67;;
12042;SDS011;6082;49.306;12.862;2022-11-11T02:02:28;6.07;;;4.03;;
12042;SDS011;6082;49.306;12.862;2022-11-11T02:05:09;7.50;;;4.57;;
12042;SDS011;6082;49.306;12.862;2022-11-11T02:07:56;7.50;;;4.43;;
12042;SDS011;6082;49.306;12.862;2022-11-11T02:10:24;8.17;;;4.20;;
12042;SDS011;6082;49.306;12.862;2022-11-11T02:12:52;4.77;;;3.37;;
12042;SDS011;6082;49.306;12.862;2022-11-11T02:15:36;6.57;;;4.07;;
12042;SDS011;6082;49.306;12.862;2022-11-11T02:18:03;6.70;;;4.40;;
12042;SDS011;6082;49.306;12.862;2022-11-11T02:20:32;8.70;;;4.53;;
12042;SDS011;6082;49.306;12.862;2022-11-11T02:23:02;6.30;;;4.23;;
12042;SDS011;6082;49.306;12.862;2022-11-11T02:25:35;7.87;;;4.30;;
12042;SDS011;6082;49.306;12.862;2022-11-11T02:28:05;7.27;;;4.23;;
12042;SDS011;6082;49.306;12.862;2022-11-11T02:30:32;7.93;;;4.00;;
12042;SDS011;6082;49.306;12.862;2022-11-11T02:32:58;5.70;;;3.97;;
12042;SDS011;6082;49.306;12.862;2022-11-11T02:35:29;9.03;;;4.50;;
12042;SDS011;6082;49.306;12.862;2022-11-11T02:37:56;6.67;;;4.10;;
12042;SDS011;6082;49.306;12.862;2022-11-11T02:40:28;7.87;;;4.27;;
12042;SDS011;6082;49.306;12.862;2022-11-11T02:42:59;7.07;;;4.50;;
12042;SDS011;6082;49.306;12.862;2022-11-11T02:45:24;8.87;;;4.03;;
12042;SDS011;6082;49.306;12.862;2022-11-11T02:47:50;9.70;;;4.40;;
12042;SDS011;6082;49.306;12.862;2022-11-11T02:50:16;6.90;;;4.13;;
12042;SDS011;6082;49.306;12.862;2022-11-11T02:52:42;5.63;;;3.40;;
12042;SDS011;6082;49.306;12.862;2022-11-11T02:55:08;8.27;;;3.77;;
12042;SDS011;6082;49.306;12.862;2022-11-11T02:57:37;6.47;;;3.77;;
12042;SDS011;6082;49.306;12.862;2022-11-11T03:00:03;5.50;;;4.13;;
12042;SDS011;6082;49.306;12.862;2022-11-11T03:02:29;5.27;;;3.90;;
12042;SDS011;6082;49.306;12.862;2022-11-11T03:04:56;6.13;;;3.80;;
12042;SDS011;6082;49.306;12.862;2022-11-11T03:07:23;6.23;;;3.57;;
12042;SDS011;6082;49.306;12.862;2022-11-11T03:09:49;5.20;;;4.07;;
12042;SDS011;6082;49.306;12.862;2022-11-11T03:12:15;6.27;;;3.83;;
12042;SDS011;6082;49.306;12.862;2022-11-11T03:14:41;8.63;;;4.53;;
12042;SDS011;6082;49.306;12.862;2022-11-11T03:17:07;5.67;;;3.77;;
12042;SDS011;6082;49.306;12.862;2022-11-11T03:19:52;6.43;;;3.93;;
12042;SDS011;6082;49.306;12.862;2022-11-11T03:22:37;4.93;;;4.00;;
12042;SDS011;6082;49.306;12.862;2022-11-11T03:25:03;7.20;;;3.93;;
12042;SDS011;6082;49.306;12.862;2022-11-11T03:27:48;6.07;;;3.77;;
12042;SDS011;6082;49.306;12.862;2022-11-11T03:30:13;5.07;;;4.00;;
12042;SDS011;6082;49.306;12.862;2022-11-11T03:32:39;4.23;;;3.07;;
12042;SDS011;6082;49.306;12.862;2022-11-11T03:35:05;4.43;;;3.13;;
12042;SDS011;6082;49.306;12.862;2022-11-11T03:37:31;5.83;;;3.33;;
12042;SDS011;6082;49.306;12.862;2022-11-11T03:40:15;6.10;;;3.67;;
12042;SDS011;6082;49.306;12.862;2022-11-11T03:42:40;7.50;;;3.80;;
12042;SDS011;6082;49.306;12.862;2022-11-11T03:45:08;4.90;;;2.87;;
12042;SDS011;6082;49.306;12.862;2022-11-11T03:47:38;4.63;;;3.03;;
12042;SDS011;6082;49.306;12.862;2022-11-11T03:50:04;5.97;;;3.17;;
12042;SDS011;6082;49.306;12.862;2022-11-11T03:52:30;4.27;;;2.97;;
12042;SDS011;6082;49.306;12.862;2022-11-11T03:54:56;4.80;;;2.90;;
12042;SDS011;6082;49.306;12.862;2022-11-11T03:57:21;7.00;;;3.40;;
12042;SDS011;6082;49.306;12.862;2022-11-11T03:59:56;6.23;;;3.40;;
12042;SDS011;6082;49.306;12.862;2022-11-11T04:02:22;5.60;;;3.20;;
12042;SDS011;6082;49.306;12.862;2022-11-11T04:05:06;4.90;;;3.07;;
12042;SDS011;6082;49.306;12.862;2022-11-11T04:07:51;3.47;;;2.90;;
12042;SDS011;6082;49.306;12.862;2022-11-11T04:10:35;4.87;;;3.03;;
12042;SDS011;6082;49.306;12.862;2022-11-11T04:13:02;4.10;;;2.83;;
12042;SDS011;6082;49.306;12.862;2022-11-11T04:15:48;4.23;;;2.80;;
12042;SDS011;6082;49.306;12.862;2022-11-11T04:18:32;3.47;;;2.73;;
12042;SDS011;6082;49.306;12.862;2022-11-11T04:21:21;3.97;;;2.70;;
12042;SDS011;6082;49.306;12.862;2022-11-11T04:24:07;3.73;;;2.33;;
12042;SDS011;6082;49.306;12.862;2022-11-11T04:26:53;6.30;;;2.73;;
12042;SDS011;6082;49.306;12.862;2022-11-11T04:29:20;5.17;;;2.93;;
12042;SDS011;6082;49.306;12.862;2022-11-11T04:31:56;4.20;;;2.67;;
12042;SDS011;6082;49.306;12.862;2022-11-11T04:34:41;4.30;;;2.77;;
12042;SDS011;6082;49.306;12.862;2022-11-11T04:37:08;3.63;;;2.70;;
12042;SDS011;6082;49.306;12.862;2022-11-11T04:39:34;4.47;;;2.67;;
12042;SDS011;6082;49.306;12.862;2022-11-11T04:42:19;5.37;;;2.70;;
12042;SDS011;6082;49.306;12.862;2022-11-11T04:44:44;4.07;;;3.07;;
12042;SDS011;6082;49.306;12.862;2022-11-11T04:47:29;3.30;;;2.20;;
12042;SDS011;6082;49.306;12.862;2022-11-11T04:49:54;3.90;;;2.60;;
12042;SDS011;6082;49.306;12.862;2022-11-11T04:52:20;3.63;;;2.50;;
12042;SDS011;6082;49.306;12.862;2022-11-11T04:54:53;4.03;;;2.63;;
12042;SDS011;6082;49.306;12.862;2022-11-11T04:57:38;3.70;;;2.67;;
12042;SDS011;6082;49.306;12.862;2022-11-11T05:00:09;3.87;;;2.70;;
12042;SDS011;6082;49.306;12.862;2022-11-11T05:02:36;5.27;;;2.77;;
12042;SDS011;6082;49.306;12.862;2022-11-11T05:05:21;5.13;;;2.67;;
12042;SDS011;6082;49.306;12.862;2022-11-11T05:07:48;4.27;;;2.47;;
12042;SDS011;6082;49.306;12.862;2022-11-11T05:10:32;5.20;;;2.83;;
12042;SDS011;6082;49.306;12.862;2022-11-11T05:12:58;3.93;;;2.60;;
12042;SDS011;6082;49.306;12.862;2022-11-11T05:15:42;5.67;;;3.30;;
12042;SDS011;6082;49.306;12.862;2022-11-11T05:18:27;4.47;;;2.90;;
12042;SDS011;6082;49.306;12.862;2022-11-11T05:21:13;3.43;;;2.97;;
12042;SDS011;6082;49.306;12.862;2022-11-11T05:23:48;7.33;;;2.87;;
12042;SDS011;6082;49.306;12.862;2022-11-11T05:26:33;4.13;;;2.90;;
12042;SDS011;6082;49.306;12.862;2022-11-11T05:28:58;4.20;;;2.60;;
12042;SDS011;6082;49.306;12.862;2022-11-11T05:31:24;5.10;;;2.90;;
12042;SDS011;6082;49.306;12.862;2022-11-11T05:33:51;4.20;;;3.20;;
12042;SDS011;6082;49.306;12.862;2022-11-11T05:36:16;5.70;;;3.30;;
12042;SDS011;6082;49.306;12.862;2022-11-11T05:38:42;4.07;;;2.67;;
12042;SDS011;6082;49.306;12.862;2022-11-11T05:41:08;4.97;;;2.63;;
12042;SDS011;6082;49.306;12.862;2022-11-11T05:43:34;4.93;;;3.17;;
12042;SDS011;6082;49.306;12.862;2022-11-11T05:45:59;5.10;;;3.00;;
12042;SDS011;6082;49.306;12.862;2022-11-11T05:48:25;5.27;;;3.27;;
12042;SDS011;6082;49.306;12.862;2022-11-11T05:50:51;4.13;;;3.13;;
12042;SDS011;6082;49.306;12.862;2022-11-11T05:53:17;5.40;;;3.63;;
12042;SDS011;6082;49.306;12.862;2022-11-11T05:55:51;5.17;;;3.50;;
12042;SDS011;6082;49.306;12.862;2022-11-11T05:58:17;4.40;;;2.57;;
12042;SDS011;6082;49.306;12.862;2022-11-11T06:00:43;3.80;;;2.80;;
12042;SDS011;6082;49.306;12.862;2022-11-11T06:03:09;4.67;;;2.80;;
12042;SDS011;6082;49.306;12.862;2022-11-11T06:05:35;4.60;;;3.37;;
12042;SDS011;6082;49.306;12.862;2022-11-11T06:08:02;4.50;;;2.90;;
12042;SDS011;6082;49.306;12.862;2022-11-11T06:10:27;5.07;;;3.00;;
12042;SDS011;6082;49.306;12.862;2022-11-11T06:12:57;5.70;;;3.03;;
12042;SDS011;6082;49.306;12.862;2022-11-11T06:15:26;5.40;;;3.10;;
12042;SDS011;6082;49.306;12.862;2022-11-11T06:17:52;4.13;;;2.70;;
12042;SDS011;6082;49.306;12.862;2022-11-11T06:20:19;4.73;;;3.10;;
12042;SDS011;6082;49.306;12.862;2022-11-11T06:22:45;4.80;;;3.17;;
12042;SDS011;6082;49.306;12.862;2022-11-11T06:25:25;5.77;;;3.07;;
12042;SDS011;6082;49.306;12.862;2022-11-11T06:28:11;5.37;;;3.17;;
12042;SDS011;6082;49.306;12.862;2022-11-11T06:30:38;3.47;;;2.83;;
12042;SDS011;6082;49.306;12.862;2022-11-11T06:33:04;4.87;;;2.77;;
12042;SDS011;6082;49.306;12.862;2022-11-11T06:35:32;5.17;;;3.60;;
12042;SDS011;6082;49.306;12.862;2022-11-11T06:37:59;6.60;;;3.43;;
12042;SDS011;6082;49.306;12.862;2022-11-11T06:40:25;4.93;;;3.17;;
12042;SDS011;6082;49.306;12.862;2022-11-11T06:42:50;7.10;;;3.00;;
12042;SDS011;6082;49.306;12.862;2022-11-11T06:45:16;4.90;;;2.90;;
12042;SDS011;6082;49.306;12.862;2022-11-11T06:47:42;6.47;;;4.20;;
12042;SDS011;6082;49.306;12.862;2022-11-11T06:50:08;9.20;;;3.93;;
12042;SDS011;6082;49.306;12.862;2022-11-11T06:52:34;5.70;;;3.90;;
12042;SDS011;6082;49.306;12.862;2022-11-11T06:55:00;4.73;;;3.17;;
12042;SDS011;6082;49.306;12.862;2022-11-11T06:57:25;5.97;;;3.10;;
12042;SDS011;6082;49.306;12.862;2022-11-11T06:59:51;4.03;;;2.57;;
12042;SDS011;6082;49.306;12.862;2022-11-11T07:02:17;5.47;;;3.63;;
12042;SDS011;6082;49.306;12.862;2022-11-11T07:04:43;6.53;;;3.63;;
12042;SDS011;6082;49.306;12.862;2022-11-11T07:07:08;6.13;;;3.80;;
12042;SDS011;6082;49.306;12.862;2022-11-11T07:09:34;4.63;;;2.80;;
12042;SDS011;6082;49.306;12.862;2022-11-11T07:12:00;4.23;;;3.10;;
12042;SDS011;6082;49.306;12.862;2022-11-11T07:14:25;6.17;;;3.53;;
12042;SDS011;6082;49.306;12.862;2022-11-11T07:16:51;7.80;;;4.03;;
12042;SDS011;6082;49.306;12.862;2022-11-11T07:19:17;5.37;;;3.07;;
12042;SDS011;6082;49.306;12.862;2022-11-11T07:21:43;5.10;;;3.50;;
12042;SDS011;6082;49.306;12.862;2022-11-11T07:24:09;5.07;;;3.27;;
12042;SDS011;6082;49.306;12.862;2022-11-11T07:26:35;4.03;;;2.60;;
12042;SDS011;6082;49.306;12.862;2022-11-11T07:29:01;7.63;;;3.80;;
12042;SDS011;6082;49.306;12.862;2022-11-11T07:31:26;9.03;;;5.43;;
12042;SDS011;6082;49.306;12.862;2022-11-11T07:33:52;8.60;;;4.50;;
12042;SDS011;6082;49.306;12.862;2022-11-11T07:36:18;7.13;;;5.07;;
12042;SDS011;6082;49.306;12.862;2022-11-11T07:38:44;5.17;;;3.47;;
12042;SDS011;6082;49.306;12.862;2022-11-11T07:41:09;5.23;;;3.80;;
12042;SDS011;6082;49.306;12.862;2022-11-11T07:43:35;4.87;;;3.33;;
12042;SDS011;6082;49.306;12.862;2022-11-11T07:46:01;6.27;;;3.93;;
12042;SDS011;6082;49.306;12.862;2022-11-11T07:48:27;7.03;;;3.80;;
12042;SDS011;6082;49.306;12.862;2022-11-11T07:50:52;6.80;;;3.87;;
12042;SDS011;6082;49.306;12.862;2022-11-11T07:53:18;4.90;;;3.30;;
12042;SDS011;6082;49.306;12.862;2022-11-11T07:55:46;7.57;;;4.37;;
12042;SDS011;6082;49.306;12.862;2022-11-11T07:58:12;6.50;;;3.60;;
12042;SDS011;6082;49.306;12.862;2022-11-11T08:00:38;7.90;;;3.90;;
12042;SDS011;6082;49.306;12.862;2022-11-11T08:03:04;6.30;;;4.20;;
12042;SDS011;6082;49.306;12.862;2022-11-11T08:05:31;6.13;;;3.17;;
12042;SDS011;6082;49.306;12.862;2022-11-11T08:08:07;6.60;;;3.07;;
12042;SDS011;6082;49.306;12.862;2022-11-11T08:10:34;5.47;;;3.10;;
12042;SDS011;6082;49.306;12.862;2022-11-11T08:13:01;5.50;;;3.63;;
12042;SDS011;6082;49.306;12.862;2022-11-11T08:15:45;7.33;;;4.13;;
12042;SDS011;6082;49.306;12.862;2022-11-11T08:18:11;6.07;;;3.83;;
12042;SDS011;6082;49.306;12.862;2022-11-11T08:20:37;7.07;;;4.03;;
12042;SDS011;6082;49.306;12.862;2022-11-11T08:23:03;8.27;;;4.57;;
12042;SDS011;6082;49.306;12.862;2022-11-11T08:25:32;7.40;;;5.40;;
12042;SDS011;6082;49.306;12.862;2022-11-11T08:27:58;12.87;;;8.43;;
12042;SDS011;6082;49.306;12.862;2022-11-11T08:30:25;6.83;;;4.60;;
12042;SDS011;6082;49.306;12.862;2022-11-11T08:32:58;7.63;;;4.90;;
12042;SDS011;6082;49.306;12.862;2022-11-11T08:35:24;8.63;;;6.03;;
12042;SDS011;6082;49.306;12.862;2022-11-11T08:37:51;7.67;;;4.97;;
12042;SDS011;6082;49.306;12.862;2022-11-11T08:40:17;8.13;;;5.10;;
12042;SDS011;6082;49.306;12.862;2022-11-11T08:42:43;9.53;;;5.93;;
12042;SDS011;6082;49.306;12.862;2022-11-11T08:45:09;10.07;;;6.03;;
12042;SDS011;6082;49.306;12.862;2022-11-11T08:47:35;11.10;;;5.80;;
12042;SDS011;6082;49.306;12.862;2022-11-11T08:50:02;5.57;;;4.63;;
12042;SDS011;6082;49.306;12.862;2022-11-11T08:52:29;6.10;;;4.30;;
12042;SDS011;6082;49.306;12.862;2022-11-11T08:54:55;7.17;;;4.30;;
12042;SDS011;6082;49.306;12.862;2022-11-11T08:57:21;10.93;;;4.93;;
12042;SDS011;6082;49.306;12.862;2022-11-11T08:59:47;6.90;;;3.90;;
12042;SDS011;6082;49.306;12.862;2022-11-11T09:02:12;7.47;;;3.77;;
12042;SDS011;6082;49.306;12.862;2022-11-11T09:04:39;6.83;;;4.50;;
12042;SDS011;6082;49.306;12.862;2022-11-11T09:07:06;6.67;;;3.73;;
12042;SDS011;6082;49.306;12.862;2022-11-11T09:09:33;6.70;;;3.60;;
12042;SDS011;6082;49.306;12.862;2022-11-11T09:11:59;5.60;;;3.60;;
12042;SDS011;6082;49.306;12.862;2022-11-11T09:14:25;5.63;;;3.97;;
12042;SDS011;6082;49.306;12.862;2022-11-11T09:16:51;7.53;;;4.43;;
12042;SDS011;6082;49.306;12.862;2022-11-11T09:19:16;5.07;;;3.77;;
12042;SDS011;6082;49.306;12.862;2022-11-11T09:21:42;8.13;;;5.27;;
12042;SDS011;6082;49.306;12.862;2022-11-11T09:24:08;7.70;;;5.10;;
12042;SDS011;6082;49.306;12.862;2022-11-11T09:26:34;7.50;;;4.33;;
12042;SDS011;6082;49.306;12.862;2022-11-11T09:29:00;7.70;;;3.60;;
12042;SDS011;6082;49.306;12.862;2022-11-11T09:31:25;7.77;;;5.20;;
12042;SDS011;6082;49.306;12.862;2022-11-11T09:33:51;7.57;;;4.53;;
12042;SDS011;6082;49.306;12.862;2022-11-11T09:36:17;8.20;;;4.63;;
12042;SDS011;6082;49.306;12.862;2022-11-11T09:38:44;13.03;;;6.43;;
12042;SDS011;6082;49.306;12.862;2022-11-11T09:43:52;13.40;;;6.80;;
12042;SDS011;6082;49.306;12.862;2022-11-11T09:46:34;10.70;;;5.37;;
12042;SDS011;6082;49.306;12.862;2022-11-11T09:51:54;14.60;;;7.80;;
12042;SDS011;6082;49.306;12.862;2022-11-11T09:57:21;8.73;;;5.30;;
12042;SDS011;6082;49.306;12.862;2022-11-11T10:00:02;10.17;;;4.83;;
12042;SDS011;6082;49.306;12.862;2022-11-11T10:08:34;8.27;;;5.30;;
12042;SDS011;6082;49.306;12.862;2022-11-11T10:11:11;7.97;;;4.70;;
12042;SDS011;6082;49.306;12.862;2022-11-11T10:13:46;7.47;;;4.23;;
12042;SDS011;6082;49.306;12.862;2022-11-11T10:21:35;7.63;;;5.10;;
12042;SDS011;6082;49.306;12.862;2022-11-11T10:24:10;6.20;;;4.17;;
12042;SDS011;6082;49.306;12.862;2022-11-11T10:26:40;7.27;;;4.67;;
12042;SDS011;6082;49.306;12.862;2022-11-11T10:29:18;9.37;;;4.90;;
12042;SDS011;6082;49.306;12.862;2022-11-11T10:31:48;7.70;;;5.27;;
12042;SDS011;6082;49.306;12.862;2022-11-11T10:34:27;11.30;;;4.97;;
12042;SDS011;6082;49.306;12.862;2022-11-11T10:36:58;7.00;;;4.60;;
12042;SDS011;6082;49.306;12.862;2022-11-11T10:42:16;9.07;;;5.30;;
12042;SDS011;6082;49.306;12.862;2022-11-11T10:44:44;10.07;;;5.40;;
12042;SDS011;6082;49.306;12.862;2022-11-11T10:47:19;9.50;;;5.43;;
12042;SDS011;6082;49.306;12.862;2022-11-11T10:50:08;8.23;;;5.13;;
12042;SDS011;6082;49.306;12.862;2022-11-11T10:52:49;10.13;;;5.67;;
12042;SDS011;6082;49.306;12.862;2022-11-11T10:58:07;11.83;;;5.80;;
12042;SDS011;6082;49.306;12.862;2022-11-11T11:00:39;9.20;;;5.40;;
12042;SDS011;6082;49.306;12.862;2022-11-11T11:03:41;8.50;;;5.30;;
12042;SDS011;6082;49.306;12.862;2022-11-11T11:06:13;10.77;;;5.93;;
12042;SDS011;6082;49.306;12.862;2022-11-11T11:08:48;8.80;;;5.50;;
12042;SDS011;6082;49.306;12.862;2022-11-11T11:11:19;9.00;;;5.53;;
12042;SDS011;6082;49.306;12.862;2022-11-11T11:13:59;10.30;;;5.87;;
12042;SDS011;6082;49.306;12.862;2022-11-11T11:16:30;9.30;;;5.40;;
12042;SDS011;6082;49.306;12.862;2022-11-11T11:19:34;10.40;;;5.13;;
12042;SDS011;6082;49.306;12.862;2022-11-11T11:24:21;12.47;;;5.97;;
12042;SDS011;6082;49.306;12.862;2022-11-11T11:26:48;9.73;;;5.50;;
12042;SDS011;6082;49.306;12.862;2022-11-11T11:29:37;7.00;;;4.73;;
12042;SDS011;6082;49.306;12.862;2022-11-11T11:32:15;7.87;;;5.10;;
12042;SDS011;6082;49.306;12.862;2022-11-11T11:34:44;6.57;;;4.47;;
12042;SDS011;6082;49.306;12.862;2022-11-11T11:37:12;8.57;;;4.80;;
12042;SDS011;6082;49.306;12.862;2022-11-11T11:39:38;8.23;;;4.93;;
12042;SDS011;6082;49.306;12.862;2022-11-11T11:42:05;7.77;;;4.90;;
12042;SDS011;6082;49.306;12.862;2022-11-11T11:44:32;11.47;;;6.17;;
12042;SDS011;6082;49.306;12.862;2022-11-11T11:55:01;8.37;;;5.10;;
12042;SDS011;6082;49.306;12.862;2022-11-11T12:00:16;9.97;;;5.17;;
12042;SDS011;6082;49.306;12.862;2022-11-11T12:08:14;13.23;;;7.73;;
12042;SDS011;6082;49.306;12.862;2022-11-11T12:10:54;13.60;;;8.43;;
12042;SDS011;6082;49.306;12.862;2022-11-11T12:19:17;11.33;;;5.67;;
12042;SDS011;6082;49.306;12.862;2022-11-11T12:46:10;12.90;;;6.67;;
12042;SDS011;6082;49.306;12.862;2022-11-11T13:08:44;10.77;;;6.23;;
12042;SDS011;6082;49.306;12.862;2022-11-11T13:16:37;10.33;;;6.60;;
12042;SDS011;6082;49.306;12.862;2022-11-11T13:19:12;12.50;;;6.70;;
12042;SDS011;6082;49.306;12.862;2022-11-11T13:24:23;13.83;;;8.10;;
12042;SDS011;6082;49.306;12.862;2022-11-11T13:29:26;13.03;;;7.70;;
12042;SDS011;6082;49.306;12.862;2022-11-11T13:37:55;9.67;;;6.07;;
12042;SDS011;6082;49.306;12.862;2022-11-11T13:42:50;12.77;;;7.27;;
12042;SDS011;6082;49.306;12.862;2022-11-11T13:45:28;11.50;;;7.07;;
12042;SDS011;6082;49.306;12.862;2022-11-11T13:47:55;11.80;;;7.03;;
12042;SDS011;6082;49.306;12.862;2022-11-11T13:50:23;11.83;;;7.03;;
12042;SDS011;6082;49.306;12.862;2022-11-11T13:53:03;9.40;;;6.10;;
12042;SDS011;6082;49.306;12.862;2022-11-11T13:58:01;9.67;;;6.70;;
12042;SDS011;6082;49.306;12.862;2022-11-11T14:00:30;13.27;;;6.93;;
12042;SDS011;6082;49.306;12.862;2022-11-11T14:03:56;9.93;;;6.30;;
12042;SDS011;6082;49.306;12.862;2022-11-11T14:13:48;15.13;;;7.03;;
12042;SDS011;6082;49.306;12.862;2022-11-11T14:21:45;11.43;;;6.90;;
12042;SDS011;6082;49.306;12.862;2022-11-11T14:29:47;14.93;;;7.43;;
12042;SDS011;6082;49.306;12.862;2022-11-11T14:38:04;13.50;;;8.37;;
12042;SDS011;6082;49.306;12.862;2022-11-11T14:40:38;11.63;;;7.93;;
12042;SDS011;6082;49.306;12.862;2022-11-11T14:46:09;11.43;;;7.40;;
12042;SDS011;6082;49.306;12.862;2022-11-11T14:48:52;14.57;;;8.67;;
12042;SDS011;6082;49.306;12.862;2022-11-11T14:54:28;12.63;;;7.87;;
12042;SDS011;6082;49.306;12.862;2022-11-11T14:57:05;14.50;;;8.80;;
12042;SDS011;6082;49.306;12.862;2022-11-11T14:59:34;15.87;;;8.37;;
12042;SDS011;6082;49.306;12.862;2022-11-11T15:02:02;16.50;;;10.23;;
12042;SDS011;6082;49.306;12.862;2022-11-11T15:04:36;15.73;;;8.37;;
12042;SDS011;6082;49.306;12.862;2022-11-11T15:07:04;13.20;;;7.83;;
12042;SDS011;6082;49.306;12.862;2022-11-11T15:09:56;14.23;;;9.03;;
12042;SDS011;6082;49.306;12.862;2022-11-11T15:15:22;12.37;;;7.07;;
12042;SDS011;6082;49.306;12.862;2022-11-11T15:23:16;12.80;;;7.47;;
12042;SDS011;6082;49.306;12.862;2022-11-11T15:36:57;14.23;;;8.40;;
12042;SDS011;6082;49.306;12.862;2022-11-11T15:39:25;17.27;;;9.40;;
12042;SDS011;6082;49.306;12.862;2022-11-11T15:42:00;17.13;;;8.50;;
12042;SDS011;6082;49.306;12.862;2022-11-11T15:44:28;15.03;;;8.87;;
12042;SDS011;6082;49.306;12.862;2022-11-11T15:46:59;15.43;;;8.43;;
12042;SDS011;6082;49.306;12.862;2022-11-11T15:52:24;18.33;;;11.03;;
12042;SDS011;6082;49.306;12.862;2022-11-11T15:54:51;18.23;;;9.70;;
12042;SDS011;6082;49.306;12.862;2022-11-11T15:57:31;16.83;;;8.90;;
12042;SDS011;6082;49.306;12.862;2022-11-11T15:59:59;20.70;;;12.60;;
12042;SDS011;6082;49.306;12.862;2022-11-11T16:02:28;27.20;;;13.13;;
12042;SDS011;6082;49.306;12.862;2022-11-11T16:07:35;19.20;;;11.47;;
12042;SDS011;6082;49.306;12.862;2022-11-11T16:10:16;18.97;;;10.87;;
12042;SDS011;6082;49.306;12.862;2022-11-11T16:12:52;13.93;;;9.17;;
12042;SDS011;6082;49.306;12.862;2022-11-11T16:18:30;16.00;;;9.80;;
12042;SDS011;6082;49.306;12.862;2022-11-11T16:21:18;15.80;;;9.93;;
12042;SDS011;6082;49.306;12.862;2022-11-11T16:23:48;17.70;;;10.73;;
12042;SDS011;6082;49.306;12.862;2022-11-11T16:26:15;15.03;;;10.03;;
12042;SDS011;6082;49.306;12.862;2022-11-11T16:33:58;20.53;;;12.63;;
12042;SDS011;6082;49.306;12.862;2022-11-11T16:36:24;15.67;;;9.57;;
12042;SDS011;6082;49.306;12.862;2022-11-11T16:38:49;15.53;;;9.30;;
12042;SDS011;6082;49.306;12.862;2022-11-11T16:43:52;14.07;;;8.10;;
12042;SDS011;6082;49.306;12.862;2022-11-11T16:49:42;15.27;;;9.30;;
12042;SDS011;6082;49.306;12.862;2022-11-11T16:51:48;11.40;;;7.00;;
12042;SDS011;6082;49.306;12.862;2022-11-11T16:54:19;14.37;;;8.70;;
12042;SDS011;6082;49.306;12.862;2022-11-11T16:56:48;13.80;;;8.07;;
12042;SDS011;6082;49.306;12.862;2022-11-11T16:59:32;11.80;;;7.17;;
12042;SDS011;6082;49.306;12.862;2022-11-11T17:02:15;10.63;;;6.70;;
12042;SDS011;6082;49.306;12.862;2022-11-11T17:04:49;10.57;;;6.50;;
12042;SDS011;6082;49.306;12.862;2022-11-11T17:07:27;10.60;;;7.70;;
12042;SDS011;6082;49.306;12.862;2022-11-11T17:12:32;11.73;;;7.17;;
12042;SDS011;6082;49.306;12.862;2022-11-11T17:14:59;9.70;;;6.03;;
12042;SDS011;6082;49.306;12.862;2022-11-11T17:17:25;10.50;;;6.80;;
12042;SDS011;6082;49.306;12.862;2022-11-11T17:19:55;10.37;;;7.13;;
12042;SDS011;6082;49.306;12.862;2022-11-11T17:22:21;8.57;;;5.60;;
12042;SDS011;6082;49.306;12.862;2022-11-11T17:24:47;14.77;;;6.70;;
12042;SDS011;6082;49.306;12.862;2022-11-11T17:27:13;8.80;;;5.40;;
12042;SDS011;6082;49.306;12.862;2022-11-11T17:29:39;10.33;;;6.77;;
12042;SDS011;6082;49.306;12.862;2022-11-11T17:32:05;13.27;;;8.07;;
12042;SDS011;6082;49.306;12.862;2022-11-11T17:34:30;12.50;;;7.53;;
12042;SDS011;6082;49.306;12.862;2022-11-11T17:36:56;12.27;;;7.47;;
12042;SDS011;6082;49.306;12.862;2022-11-11T17:39:22;14.00;;;8.67;;
12042;SDS011;6082;49.306;12.862;2022-11-11T17:41:48;10.70;;;6.83;;
12042;SDS011;6082;49.306;12.862;2022-11-11T17:44:13;12.57;;;7.67;;
12042;SDS011;6082;49.306;12.862;2022-11-11T17:46:39;9.00;;;6.83;;
12042;SDS011;6082;49.306;12.862;2022-11-11T17:49:05;9.97;;;6.10;;
12042;SDS011;6082;49.306;12.862;2022-11-11T17:51:31;11.37;;;7.03;;
12042;SDS011;6082;49.306;12.862;2022-11-11T17:53:57;10.83;;;7.23;;
12042;SDS011;6082;49.306;12.862;2022-11-11T17:56:23;13.50;;;8.87;;
12042;SDS011;6082;49.306;12.862;2022-11-11T17:58:51;12.50;;;7.80;;
12042;SDS011;6082;49.306;12.862;2022-11-11T18:01:17;11.40;;;7.50;;
12042;SDS011;6082;49.306;12.862;2022-11-11T18:03:43;16.20;;;9.93;;
12042;SDS011;6082;49.306;12.862;2022-11-11T18:06:09;16.80;;;11.50;;
12042;SDS011;6082;49.306;12.862;2022-11-11T18:08:35;9.10;;;6.60;;
12042;SDS011;6082;49.306;12.862;2022-11-11T18:11:02;11.87;;;7.70;;
12042;SDS011;6082;49.306;12.862;2022-11-11T18:13:29;11.33;;;6.80;;
12042;SDS011;6082;49.306;12.862;2022-11-11T18:15:56;10.33;;;6.53;;
12042;SDS011;6082;49.306;12.862;2022-11-11T18:18:24;12.17;;;8.33;;
12042;SDS011;6082;49.306;12.862;2022-11-11T18:20:50;15.10;;;9.57;;